sensor_id;sensor_type;location;lat;lon;timestamp;P1;durP1;ratioP1;P2;durP2;ratioP2
25123;SDS011;13104;51.030;4.686;2022-08-25T00:00:21;6.72;;;4.50;;
25123;SDS011;13104;51.030;4.686;2022-08-25T00:03:26;6.90;;;4.05;;
25123;SDS011;13104;51.030;4.686;2022-08-25T00:05:54;5.28;;;3.88;;
25123;SDS011;13104;51.030;4.686;2022-08-25T00:08:33;4.68;;;3.90;;
25123;SDS011;13104;51.030;4.686;2022-08-25T00:11:22;9.07;;;4.35;;
25123;SDS011;13104;51.030;4.686;2022-08-25T00:13:54;5.78;;;4.45;;
25123;SDS011;13104;51.030;4.686;2022-08-25T00:16:37;10.73;;;4.97;;
25123;SDS011;13104;51.030;4.686;2022-08-25T00:19:17;6.32;;;4.70;;
25123;SDS011;13104;51.030;4.686;2022-08-25T00:21:44;5.90;;;3.80;;
25123;SDS011;13104;51.030;4.686;2022-08-25T00:24:31;7.03;;;4.35;;
25123;SDS011;13104;51.030;4.686;2022-08-25T00:27:01;10.68;;;3.90;;
25123;SDS011;13104;51.030;4.686;2022-08-25T00:29:48;4.85;;;3.97;;
25123;SDS011;13104;51.030;4.686;2022-08-25T00:32:19;5.22;;;4.35;;
25123;SDS011;13104;51.030;4.686;2022-08-25T00:34:45;5.25;;;3.92;;
25123;SDS011;13104;51.030;4.686;2022-08-25T00:37:11;4.47;;;4.03;;
25123;SDS011;13104;51.030;4.686;2022-08-25T00:39:45;6.38;;;4.70;;
25123;SDS011;13104;51.030;4.686;2022-08-25T00:42:13;5.75;;;4.43;;
25123;SDS011;13104;51.030;4.686;2022-08-25T00:45:01;6.38;;;4.38;;
25123;SDS011;13104;51.030;4.686;2022-08-25T00:47:47;5.95;;;4.43;;
25123;SDS011;13104;51.030;4.686;2022-08-25T00:50:20;8.68;;;4.30;;
25123;SDS011;13104;51.030;4.686;2022-08-25T00:52:59;7.68;;;4.13;;
25123;SDS011;13104;51.030;4.686;2022-08-25T00:55:59;6.40;;;4.18;;
25123;SDS011;13104;51.030;4.686;2022-08-25T00:58:44;5.13;;;4.40;;
25123;SDS011;13104;51.030;4.686;2022-08-25T01:01:11;6.30;;;4.85;;
25123;SDS011;13104;51.030;4.686;2022-08-25T01:03:46;6.07;;;5.43;;
25123;SDS011;13104;51.030;4.686;2022-08-25T01:06:35;10.57;;;5.22;;
25123;SDS011;13104;51.030;4.686;2022-08-25T01:09:03;5.97;;;4.43;;
25123;SDS011;13104;51.030;4.686;2022-08-25T01:11:29;6.10;;;5.25;;
25123;SDS011;13104;51.030;4.686;2022-08-25T01:13:59;8.10;;;5.22;;
25123;SDS011;13104;51.030;4.686;2022-08-25T01:16:49;6.75;;;5.22;;
25123;SDS011;13104;51.030;4.686;2022-08-25T01:19:44;6.55;;;5.63;;
25123;SDS011;13104;51.030;4.686;2022-08-25T01:22:15;8.43;;;5.47;;
25123;SDS011;13104;51.030;4.686;2022-08-25T01:25:06;8.60;;;6.22;;
25123;SDS011;13104;51.030;4.686;2022-08-25T01:30:54;9.20;;;5.38;;
25123;SDS011;13104;51.030;4.686;2022-08-25T01:33:21;6.10;;;5.20;;
25123;SDS011;13104;51.030;4.686;2022-08-25T01:36:11;6.43;;;5.20;;
25123;SDS011;13104;51.030;4.686;2022-08-25T01:41:58;9.45;;;5.10;;
25123;SDS011;13104;51.030;4.686;2022-08-25T01:44:47;7.68;;;5.60;;
25123;SDS011;13104;51.030;4.686;2022-08-25T01:47:14;6.90;;;5.53;;
25123;SDS011;13104;51.030;4.686;2022-08-25T01:49:41;6.97;;;5.65;;
25123;SDS011;13104;51.030;4.686;2022-08-25T01:52:15;7.68;;;6.07;;
25123;SDS011;13104;51.030;4.686;2022-08-25T01:54:48;8.63;;;5.53;;
25123;SDS011;13104;51.030;4.686;2022-08-25T02:00:25;9.70;;;5.78;;
25123;SDS011;13104;51.030;4.686;2022-08-25T02:02:55;8.00;;;6.35;;
25123;SDS011;13104;51.030;4.686;2022-08-25T02:05:27;6.88;;;5.20;;
25123;SDS011;13104;51.030;4.686;2022-08-25T02:13:40;7.13;;;5.93;;
25123;SDS011;13104;51.030;4.686;2022-08-25T02:16:45;11.55;;;6.55;;
25123;SDS011;13104;51.030;4.686;2022-08-25T02:19:22;10.10;;;5.13;;
25123;SDS011;13104;51.030;4.686;2022-08-25T02:21:56;8.35;;;5.90;;
25123;SDS011;13104;51.030;4.686;2022-08-25T02:24:23;10.10;;;6.30;;
25123;SDS011;13104;51.030;4.686;2022-08-25T02:26:50;6.43;;;5.57;;
25123;SDS011;13104;51.030;4.686;2022-08-25T02:29:16;6.47;;;5.82;;
25123;SDS011;13104;51.030;4.686;2022-08-25T02:31:43;8.82;;;6.57;;
25123;SDS011;13104;51.030;4.686;2022-08-25T02:34:27;10.48;;;6.90;;
25123;SDS011;13104;51.030;4.686;2022-08-25T02:37:21;9.63;;;6.43;;
25123;SDS011;13104;51.030;4.686;2022-08-25T02:39:47;8.93;;;5.78;;
25123;SDS011;13104;51.030;4.686;2022-08-25T02:42:14;9.02;;;5.65;;
25123;SDS011;13104;51.030;4.686;2022-08-25T02:44:41;6.63;;;5.50;;
25123;SDS011;13104;51.030;4.686;2022-08-25T02:47:08;8.35;;;5.35;;
25123;SDS011;13104;51.030;4.686;2022-08-25T02:49:35;8.95;;;5.45;;
25123;SDS011;13104;51.030;4.686;2022-08-25T02:52:05;9.15;;;5.78;;
25123;SDS011;13104;51.030;4.686;2022-08-25T02:54:51;7.22;;;5.70;;
25123;SDS011;13104;51.030;4.686;2022-08-25T03:15:46;7.40;;;5.60;;
25123;SDS011;13104;51.030;4.686;2022-08-25T03:21:16;9.57;;;5.63;;
25123;SDS011;13104;51.030;4.686;2022-08-25T03:24:10;12.20;;;6.05;;
25123;SDS011;13104;51.030;4.686;2022-08-25T03:26:36;10.02;;;5.88;;
25123;SDS011;13104;51.030;4.686;2022-08-25T03:29:25;7.43;;;6.20;;
25123;SDS011;13104;51.030;4.686;2022-08-25T03:31:52;7.97;;;5.38;;
25123;SDS011;13104;51.030;4.686;2022-08-25T03:34:20;8.63;;;6.15;;
25123;SDS011;13104;51.030;4.686;2022-08-25T03:36:54;10.40;;;6.18;;
25123;SDS011;13104;51.030;4.686;2022-08-25T03:39:21;7.07;;;6.10;;
25123;SDS011;13104;51.030;4.686;2022-08-25T03:41:48;10.73;;;7.05;;
25123;SDS011;13104;51.030;4.686;2022-08-25T03:44:15;8.95;;;6.43;;
25123;SDS011;13104;51.030;4.686;2022-08-25T03:46:42;9.48;;;6.75;;
25123;SDS011;13104;51.030;4.686;2022-08-25T03:49:09;10.43;;;6.20;;
25123;SDS011;13104;51.030;4.686;2022-08-25T03:51:39;11.65;;;5.93;;
25123;SDS011;13104;51.030;4.686;2022-08-25T03:54:06;8.70;;;6.07;;
25123;SDS011;13104;51.030;4.686;2022-08-25T03:56:32;10.73;;;6.95;;
25123;SDS011;13104;51.030;4.686;2022-08-25T03:59:00;10.00;;;6.25;;
25123;SDS011;13104;51.030;4.686;2022-08-25T04:01:26;10.27;;;6.68;;
25123;SDS011;13104;51.030;4.686;2022-08-25T04:03:52;7.72;;;6.00;;
25123;SDS011;13104;51.030;4.686;2022-08-25T04:06:20;8.13;;;6.07;;
25123;SDS011;13104;51.030;4.686;2022-08-25T04:08:46;9.82;;;6.32;;
25123;SDS011;13104;51.030;4.686;2022-08-25T04:11:16;11.38;;;6.15;;
25123;SDS011;13104;51.030;4.686;2022-08-25T04:13:42;9.30;;;5.75;;
25123;SDS011;13104;51.030;4.686;2022-08-25T04:16:10;8.55;;;5.57;;
25123;SDS011;13104;51.030;4.686;2022-08-25T04:18:38;15.82;;;6.28;;
25123;SDS011;13104;51.030;4.686;2022-08-25T04:21:04;13.52;;;6.53;;
25123;SDS011;13104;51.030;4.686;2022-08-25T04:23:32;10.65;;;6.10;;
25123;SDS011;13104;51.030;4.686;2022-08-25T04:25:59;6.95;;;5.32;;
25123;SDS011;13104;51.030;4.686;2022-08-25T04:28:25;8.35;;;5.93;;
25123;SDS011;13104;51.030;4.686;2022-08-25T04:30:51;7.72;;;5.07;;
25123;SDS011;13104;51.030;4.686;2022-08-25T04:33:17;9.10;;;5.63;;
25123;SDS011;13104;51.030;4.686;2022-08-25T04:35:47;8.98;;;6.10;;
25123;SDS011;13104;51.030;4.686;2022-08-25T04:38:13;9.02;;;5.22;;
25123;SDS011;13104;51.030;4.686;2022-08-25T04:40:41;8.00;;;5.50;;
25123;SDS011;13104;51.030;4.686;2022-08-25T04:43:07;8.68;;;5.03;;
25123;SDS011;13104;51.030;4.686;2022-08-25T04:45:37;9.43;;;5.85;;
25123;SDS011;13104;51.030;4.686;2022-08-25T04:48:04;7.32;;;5.05;;
25123;SDS011;13104;51.030;4.686;2022-08-25T04:50:30;7.78;;;4.95;;
25123;SDS011;13104;51.030;4.686;2022-08-25T04:52:57;5.82;;;4.57;;
25123;SDS011;13104;51.030;4.686;2022-08-25T04:55:23;8.70;;;4.97;;
25123;SDS011;13104;51.030;4.686;2022-08-25T04:57:49;9.90;;;5.10;;
25123;SDS011;13104;51.030;4.686;2022-08-25T05:00:15;8.05;;;5.72;;
25123;SDS011;13104;51.030;4.686;2022-08-25T05:02:42;8.65;;;5.05;;
25123;SDS011;13104;51.030;4.686;2022-08-25T05:05:08;7.32;;;4.78;;
25123;SDS011;13104;51.030;4.686;2022-08-25T05:07:34;8.65;;;5.50;;
25123;SDS011;13104;51.030;4.686;2022-08-25T05:10:00;8.95;;;5.63;;
25123;SDS011;13104;51.030;4.686;2022-08-25T05:12:26;8.73;;;5.85;;
25123;SDS011;13104;51.030;4.686;2022-08-25T05:14:52;10.25;;;5.53;;
25123;SDS011;13104;51.030;4.686;2022-08-25T05:20:03;10.82;;;6.00;;
25123;SDS011;13104;51.030;4.686;2022-08-25T05:22:55;8.38;;;5.57;;
25123;SDS011;13104;51.030;4.686;2022-08-25T05:25:32;8.15;;;5.35;;
25123;SDS011;13104;51.030;4.686;2022-08-25T05:27:58;9.65;;;5.68;;
25123;SDS011;13104;51.030;4.686;2022-08-25T05:30:56;10.85;;;6.25;;
25123;SDS011;13104;51.030;4.686;2022-08-25T05:46:06;8.25;;;4.93;;
25123;SDS011;13104;51.030;4.686;2022-08-25T05:52:06;10.23;;;5.30;;
25123;SDS011;13104;51.030;4.686;2022-08-25T06:13:02;7.93;;;4.63;;
25123;SDS011;13104;51.030;4.686;2022-08-25T06:19:09;8.50;;;4.65;;
25123;SDS011;13104;51.030;4.686;2022-08-25T06:26:02;6.97;;;4.30;;
25123;SDS011;13104;51.030;4.686;2022-08-25T06:31:33;7.35;;;4.25;;
25123;SDS011;13104;51.030;4.686;2022-08-25T06:40:16;7.15;;;4.18;;
25123;SDS011;13104;51.030;4.686;2022-08-25T06:48:34;7.07;;;3.83;;
25123;SDS011;13104;51.030;4.686;2022-08-25T06:51:03;8.82;;;3.85;;
25123;SDS011;13104;51.030;4.686;2022-08-25T06:53:30;10.90;;;3.92;;
25123;SDS011;13104;51.030;4.686;2022-08-25T06:55:57;9.23;;;3.70;;
25123;SDS011;13104;51.030;4.686;2022-08-25T06:58:29;7.13;;;3.85;;
25123;SDS011;13104;51.030;4.686;2022-08-25T07:00:55;7.60;;;4.07;;
25123;SDS011;13104;51.030;4.686;2022-08-25T07:03:21;9.48;;;3.97;;
25123;SDS011;13104;51.030;4.686;2022-08-25T07:17:43;9.93;;;3.80;;
25123;SDS011;13104;51.030;4.686;2022-08-25T07:23:15;13.05;;;3.45;;
25123;SDS011;13104;51.030;4.686;2022-08-25T07:25:41;6.18;;;3.88;;
25123;SDS011;13104;51.030;4.686;2022-08-25T07:28:07;10.88;;;3.80;;
25123;SDS011;13104;51.030;4.686;2022-08-25T07:30:33;7.63;;;3.30;;
25123;SDS011;13104;51.030;4.686;2022-08-25T07:33:01;6.00;;;3.38;;
25123;SDS011;13104;51.030;4.686;2022-08-25T07:35:27;9.80;;;3.40;;
25123;SDS011;13104;51.030;4.686;2022-08-25T07:37:56;6.50;;;3.45;;
25123;SDS011;13104;51.030;4.686;2022-08-25T07:42:49;11.02;;;3.78;;
25123;SDS011;13104;51.030;4.686;2022-08-25T07:45:16;5.97;;;3.17;;
25123;SDS011;13104;51.030;4.686;2022-08-25T07:47:43;12.18;;;3.65;;
25123;SDS011;13104;51.030;4.686;2022-08-25T07:50:10;7.32;;;3.40;;
25123;SDS011;13104;51.030;4.686;2022-08-25T08:06:46;8.93;;;3.33;;
25123;SDS011;13104;51.030;4.686;2022-08-25T08:15:36;8.63;;;3.17;;
25123;SDS011;13104;51.030;4.686;2022-08-25T08:18:35;5.85;;;3.05;;
25123;SDS011;13104;51.030;4.686;2022-08-25T08:21:14;6.40;;;3.10;;
25123;SDS011;13104;51.030;4.686;2022-08-25T08:27:09;9.55;;;3.30;;
25123;SDS011;13104;51.030;4.686;2022-08-25T08:54:15;5.22;;;2.30;;
25123;SDS011;13104;51.030;4.686;2022-08-25T08:56:44;6.70;;;2.80;;
25123;SDS011;13104;51.030;4.686;2022-08-25T08:59:19;5.75;;;2.55;;
25123;SDS011;13104;51.030;4.686;2022-08-25T09:01:56;4.93;;;2.53;;
25123;SDS011;13104;51.030;4.686;2022-08-25T09:06:56;4.40;;;2.40;;
25123;SDS011;13104;51.030;4.686;2022-08-25T09:09:25;5.43;;;2.40;;
25123;SDS011;13104;51.030;4.686;2022-08-25T09:11:58;2.92;;;2.17;;
25123;SDS011;13104;51.030;4.686;2022-08-25T09:14:34;5.38;;;2.25;;
25123;SDS011;13104;51.030;4.686;2022-08-25T09:22:17;9.63;;;2.55;;
25123;SDS011;13104;51.030;4.686;2022-08-25T09:27:13;5.10;;;2.15;;
25123;SDS011;13104;51.030;4.686;2022-08-25T09:32:11;7.47;;;2.30;;
25123;SDS011;13104;51.030;4.686;2022-08-25T09:34:38;7.43;;;2.40;;
25123;SDS011;13104;51.030;4.686;2022-08-25T09:37:05;4.35;;;1.92;;
25123;SDS011;13104;51.030;4.686;2022-08-25T09:39:31;2.85;;;2.05;;
25123;SDS011;13104;51.030;4.686;2022-08-25T09:41:58;6.07;;;2.10;;
25123;SDS011;13104;51.030;4.686;2022-08-25T09:44:25;6.45;;;2.20;;
25123;SDS011;13104;51.030;4.686;2022-08-25T09:49:29;3.47;;;2.10;;
25123;SDS011;13104;51.030;4.686;2022-08-25T09:51:56;8.30;;;2.25;;
25123;SDS011;13104;51.030;4.686;2022-08-25T09:54:40;3.45;;;2.10;;
25123;SDS011;13104;51.030;4.686;2022-08-25T09:57:07;3.85;;;1.83;;
25123;SDS011;13104;51.030;4.686;2022-08-25T09:59:34;5.85;;;1.75;;
25123;SDS011;13104;51.030;4.686;2022-08-25T10:02:04;6.07;;;2.40;;
25123;SDS011;13104;51.030;4.686;2022-08-25T10:04:31;4.57;;;1.98;;
25123;SDS011;13104;51.030;4.686;2022-08-25T10:06:59;6.38;;;2.13;;
25123;SDS011;13104;51.030;4.686;2022-08-25T10:11:54;5.90;;;2.22;;
25123;SDS011;13104;51.030;4.686;2022-08-25T10:14:28;5.47;;;1.88;;
25123;SDS011;13104;51.030;4.686;2022-08-25T10:22:40;3.03;;;1.52;;
25123;SDS011;13104;51.030;4.686;2022-08-25T10:25:07;4.32;;;1.80;;
25123;SDS011;13104;51.030;4.686;2022-08-25T10:27:59;2.55;;;1.83;;
25123;SDS011;13104;51.030;4.686;2022-08-25T10:36:11;4.55;;;1.60;;
25123;SDS011;13104;51.030;4.686;2022-08-25T10:43:30;4.72;;;1.80;;
25123;SDS011;13104;51.030;4.686;2022-08-25T10:48:27;5.05;;;1.60;;
25123;SDS011;13104;51.030;4.686;2022-08-25T10:58:23;5.47;;;1.75;;
25123;SDS011;13104;51.030;4.686;2022-08-25T11:03:58;6.57;;;1.70;;
25123;SDS011;13104;51.030;4.686;2022-08-25T11:06:34;9.27;;;1.90;;
25123;SDS011;13104;51.030;4.686;2022-08-25T11:09:03;4.68;;;1.80;;
25123;SDS011;13104;51.030;4.686;2022-08-25T11:11:31;2.75;;;1.60;;
25123;SDS011;13104;51.030;4.686;2022-08-25T11:19:16;4.53;;;1.70;;
25123;SDS011;13104;51.030;4.686;2022-08-25T12:35:31;7.70;;;1.90;;
25123;SDS011;13104;51.030;4.686;2022-08-25T12:38:02;4.32;;;1.52;;
25123;SDS011;13104;51.030;4.686;2022-08-25T12:41:12;3.58;;;1.98;;
25123;SDS011;13104;51.030;4.686;2022-08-25T12:45:45;4.05;;;1.70;;
25123;SDS011;13104;51.030;4.686;2022-08-25T12:51:00;2.90;;;1.77;;
25123;SDS011;13104;51.030;4.686;2022-08-25T12:55:56;4.70;;;1.88;;
25123;SDS011;13104;51.030;4.686;2022-08-25T12:58:23;3.78;;;1.63;;
25123;SDS011;13104;51.030;4.686;2022-08-25T13:01:12;4.45;;;1.63;;
25123;SDS011;13104;51.030;4.686;2022-08-25T13:06:26;2.95;;;1.80;;
25123;SDS011;13104;51.030;4.686;2022-08-25T13:13:59;4.00;;;1.35;;
25123;SDS011;13104;51.030;4.686;2022-08-25T13:18:52;3.35;;;1.70;;
25123;SDS011;13104;51.030;4.686;2022-08-25T13:21:36;5.20;;;1.60;;
25123;SDS011;13104;51.030;4.686;2022-08-25T13:24:04;4.53;;;1.70;;
25123;SDS011;13104;51.030;4.686;2022-08-25T13:26:31;4.32;;;1.60;;
25123;SDS011;13104;51.030;4.686;2022-08-25T13:28:59;3.10;;;1.50;;
25123;SDS011;13104;51.030;4.686;2022-08-25T13:31:26;4.25;;;1.60;;
25123;SDS011;13104;51.030;4.686;2022-08-25T13:34:04;2.55;;;1.63;;
25123;SDS011;13104;51.030;4.686;2022-08-25T13:36:35;5.60;;;1.75;;
25123;SDS011;13104;51.030;4.686;2022-08-25T13:39:24;2.63;;;1.50;;
25123;SDS011;13104;51.030;4.686;2022-08-25T13:41:52;6.93;;;1.73;;
25123;SDS011;13104;51.030;4.686;2022-08-25T13:44:19;4.68;;;1.70;;
25123;SDS011;13104;51.030;4.686;2022-08-25T13:46:46;5.65;;;1.75;;
25123;SDS011;13104;51.030;4.686;2022-08-25T13:52:27;3.70;;;1.60;;
25123;SDS011;13104;51.030;4.686;2022-08-25T13:54:59;4.68;;;1.70;;
25123;SDS011;13104;51.030;4.686;2022-08-25T13:57:27;3.38;;;1.70;;
25123;SDS011;13104;51.030;4.686;2022-08-25T14:00:02;5.13;;;1.60;;
25123;SDS011;13104;51.030;4.686;2022-08-25T14:05:11;2.72;;;1.75;;
25123;SDS011;13104;51.030;4.686;2022-08-25T14:07:38;5.65;;;1.70;;
25123;SDS011;13104;51.030;4.686;2022-08-25T14:10:06;3.25;;;1.80;;
25123;SDS011;13104;51.030;4.686;2022-08-25T14:15:07;9.98;;;1.70;;
25123;SDS011;13104;51.030;4.686;2022-08-25T14:17:34;4.65;;;1.80;;
25123;SDS011;13104;51.030;4.686;2022-08-25T14:20:01;3.35;;;1.70;;
25123;SDS011;13104;51.030;4.686;2022-08-25T14:22:28;3.50;;;1.67;;
25123;SDS011;13104;51.030;4.686;2022-08-25T14:28:22;2.92;;;1.55;;
25123;SDS011;13104;51.030;4.686;2022-08-25T14:37:24;5.63;;;1.63;;
25123;SDS011;13104;51.030;4.686;2022-08-25T14:55:12;7.18;;;2.80;;
25123;SDS011;13104;51.030;4.686;2022-08-25T14:57:38;14.20;;;3.10;;
25123;SDS011;13104;51.030;4.686;2022-08-25T15:00:11;13.88;;;3.20;;
25123;SDS011;13104;51.030;4.686;2022-08-25T15:02:40;7.10;;;3.03;;
25123;SDS011;13104;51.030;4.686;2022-08-25T15:05:07;5.70;;;3.00;;
25123;SDS011;13104;51.030;4.686;2022-08-25T15:07:36;10.32;;;3.10;;
25123;SDS011;13104;51.030;4.686;2022-08-25T15:10:22;9.50;;;3.53;;
25123;SDS011;13104;51.030;4.686;2022-08-25T15:12:51;9.02;;;3.30;;
25123;SDS011;13104;51.030;4.686;2022-08-25T15:15:17;8.43;;;2.95;;
25123;SDS011;13104;51.030;4.686;2022-08-25T15:17:45;6.53;;;3.25;;
25123;SDS011;13104;51.030;4.686;2022-08-25T15:20:11;13.85;;;3.63;;
25123;SDS011;13104;51.030;4.686;2022-08-25T15:22:39;12.43;;;3.47;;
25123;SDS011;13104;51.030;4.686;2022-08-25T15:25:05;7.88;;;3.42;;
25123;SDS011;13104;51.030;4.686;2022-08-25T15:27:32;8.15;;;3.42;;
25123;SDS011;13104;51.030;4.686;2022-08-25T15:29:58;8.70;;;2.90;;
25123;SDS011;13104;51.030;4.686;2022-08-25T15:32:24;13.23;;;3.30;;
25123;SDS011;13104;51.030;4.686;2022-08-25T15:34:50;4.90;;;2.60;;
25123;SDS011;13104;51.030;4.686;2022-08-25T15:37:16;9.30;;;2.85;;
25123;SDS011;13104;51.030;4.686;2022-08-25T15:39:43;6.90;;;2.83;;
25123;SDS011;13104;51.030;4.686;2022-08-25T15:42:10;8.85;;;2.65;;
25123;SDS011;13104;51.030;4.686;2022-08-25T15:44:37;5.45;;;2.90;;
25123;SDS011;13104;51.030;4.686;2022-08-25T15:47:03;6.28;;;3.20;;
25123;SDS011;13104;51.030;4.686;2022-08-25T15:49:29;8.68;;;2.88;;
25123;SDS011;13104;51.030;4.686;2022-08-25T15:51:55;10.30;;;3.10;;
25123;SDS011;13104;51.030;4.686;2022-08-25T15:54:22;10.73;;;3.65;;
25123;SDS011;13104;51.030;4.686;2022-08-25T15:56:49;9.43;;;5.18;;
25123;SDS011;13104;51.030;4.686;2022-08-25T15:59:15;10.52;;;4.93;;
25123;SDS011;13104;51.030;4.686;2022-08-25T16:01:41;14.73;;;4.93;;
25123;SDS011;13104;51.030;4.686;2022-08-25T16:04:08;11.57;;;6.35;;
25123;SDS011;13104;51.030;4.686;2022-08-25T16:06:34;14.52;;;5.82;;
25123;SDS011;13104;51.030;4.686;2022-08-25T16:09:02;16.08;;;4.55;;
25123;SDS011;13104;51.030;4.686;2022-08-25T16:11:29;12.77;;;4.82;;
25123;SDS011;13104;51.030;4.686;2022-08-25T16:13:57;12.77;;;4.35;;
25123;SDS011;13104;51.030;4.686;2022-08-25T16:16:24;18.17;;;4.93;;
25123;SDS011;13104;51.030;4.686;2022-08-25T16:18:50;11.45;;;4.43;;
25123;SDS011;13104;51.030;4.686;2022-08-25T16:21:18;9.90;;;5.78;;
25123;SDS011;13104;51.030;4.686;2022-08-25T16:23:47;12.93;;;5.57;;
25123;SDS011;13104;51.030;4.686;2022-08-25T16:26:14;12.88;;;6.10;;
25123;SDS011;13104;51.030;4.686;2022-08-25T16:28:41;12.38;;;5.93;;
25123;SDS011;13104;51.030;4.686;2022-08-25T16:31:09;13.70;;;6.60;;
25123;SDS011;13104;51.030;4.686;2022-08-25T16:33:35;12.07;;;6.30;;
25123;SDS011;13104;51.030;4.686;2022-08-25T16:36:08;10.95;;;6.05;;
25123;SDS011;13104;51.030;4.686;2022-08-25T16:38:35;13.70;;;6.50;;
25123;SDS011;13104;51.030;4.686;2022-08-25T16:41:05;13.90;;;6.30;;
25123;SDS011;13104;51.030;4.686;2022-08-25T16:43:31;14.55;;;7.90;;
25123;SDS011;13104;51.030;4.686;2022-08-25T16:45:58;12.88;;;5.95;;
25123;SDS011;13104;51.030;4.686;2022-08-25T16:48:26;13.40;;;6.10;;
25123;SDS011;13104;51.030;4.686;2022-08-25T16:50:52;17.70;;;5.53;;
25123;SDS011;13104;51.030;4.686;2022-08-25T16:53:18;15.10;;;6.00;;
25123;SDS011;13104;51.030;4.686;2022-08-25T16:58:29;20.08;;;6.45;;
25123;SDS011;13104;51.030;4.686;2022-08-25T17:01:02;10.68;;;5.70;;
25123;SDS011;13104;51.030;4.686;2022-08-25T17:03:29;12.15;;;7.18;;
25123;SDS011;13104;51.030;4.686;2022-08-25T17:05:57;15.70;;;7.05;;
25123;SDS011;13104;51.030;4.686;2022-08-25T17:08:24;10.25;;;6.72;;
25123;SDS011;13104;51.030;4.686;2022-08-25T17:10:54;13.95;;;7.40;;
25123;SDS011;13104;51.030;4.686;2022-08-25T17:13:20;15.90;;;8.23;;
25123;SDS011;13104;51.030;4.686;2022-08-25T17:15:47;13.75;;;7.75;;
25123;SDS011;13104;51.030;4.686;2022-08-25T17:18:14;16.63;;;8.38;;
25123;SDS011;13104;51.030;4.686;2022-08-25T17:20:40;17.80;;;8.60;;
25123;SDS011;13104;51.030;4.686;2022-08-25T17:23:07;13.25;;;7.88;;
25123;SDS011;13104;51.030;4.686;2022-08-25T17:25:34;17.08;;;9.52;;
25123;SDS011;13104;51.030;4.686;2022-08-25T17:28:00;13.75;;;8.63;;
25123;SDS011;13104;51.030;4.686;2022-08-25T17:30:28;15.55;;;8.10;;
25123;SDS011;13104;51.030;4.686;2022-08-25T17:32:56;17.77;;;9.35;;
25123;SDS011;13104;51.030;4.686;2022-08-25T17:35:22;16.52;;;10.13;;
25123;SDS011;13104;51.030;4.686;2022-08-25T17:37:48;15.73;;;9.82;;
25123;SDS011;13104;51.030;4.686;2022-08-25T17:40:15;20.42;;;12.65;;
25123;SDS011;13104;51.030;4.686;2022-08-25T17:42:41;18.65;;;11.05;;
25123;SDS011;13104;51.030;4.686;2022-08-25T17:45:07;27.08;;;11.05;;
25123;SDS011;13104;51.030;4.686;2022-08-25T17:47:33;18.67;;;11.07;;
25123;SDS011;13104;51.030;4.686;2022-08-25T17:50:00;19.85;;;13.73;;
25123;SDS011;13104;51.030;4.686;2022-08-25T17:52:26;17.25;;;11.00;;
25123;SDS011;13104;51.030;4.686;2022-08-25T17:54:52;17.17;;;9.82;;
25123;SDS011;13104;51.030;4.686;2022-08-25T17:57:20;20.45;;;11.23;;
25123;SDS011;13104;51.030;4.686;2022-08-25T17:59:46;18.33;;;9.88;;
25123;SDS011;13104;51.030;4.686;2022-08-25T18:02:12;16.67;;;12.57;;
25123;SDS011;13104;51.030;4.686;2022-08-25T18:04:38;25.30;;;12.60;;
25123;SDS011;13104;51.030;4.686;2022-08-25T18:07:05;24.88;;;15.18;;
25123;SDS011;13104;51.030;4.686;2022-08-25T18:09:31;20.65;;;15.35;;
25123;SDS011;13104;51.030;4.686;2022-08-25T18:11:57;22.95;;;15.00;;
25123;SDS011;13104;51.030;4.686;2022-08-25T18:14:26;27.92;;;15.02;;
25123;SDS011;13104;51.030;4.686;2022-08-25T18:16:53;20.38;;;15.43;;
25123;SDS011;13104;51.030;4.686;2022-08-25T18:19:19;21.48;;;13.35;;
25123;SDS011;13104;51.030;4.686;2022-08-25T18:21:45;22.63;;;13.63;;
25123;SDS011;13104;51.030;4.686;2022-08-25T18:24:11;24.83;;;16.75;;
25123;SDS011;13104;51.030;4.686;2022-08-25T18:26:37;24.67;;;16.77;;
25123;SDS011;13104;51.030;4.686;2022-08-25T18:29:04;18.00;;;14.18;;
25123;SDS011;13104;51.030;4.686;2022-08-25T18:31:30;19.30;;;13.93;;
25123;SDS011;13104;51.030;4.686;2022-08-25T18:33:56;23.92;;;15.40;;
25123;SDS011;13104;51.030;4.686;2022-08-25T18:36:22;23.17;;;15.57;;
25123;SDS011;13104;51.030;4.686;2022-08-25T18:38:49;27.33;;;13.57;;
25123;SDS011;13104;51.030;4.686;2022-08-25T18:41:36;24.17;;;14.07;;
25123;SDS011;13104;51.030;4.686;2022-08-25T18:44:03;23.80;;;14.23;;
25123;SDS011;13104;51.030;4.686;2022-08-25T18:46:30;22.52;;;15.55;;
25123;SDS011;13104;51.030;4.686;2022-08-25T18:48:56;19.40;;;14.40;;
25123;SDS011;13104;51.030;4.686;2022-08-25T18:51:24;26.52;;;16.63;;
25123;SDS011;13104;51.030;4.686;2022-08-25T18:53:50;28.08;;;17.00;;
25123;SDS011;13104;51.030;4.686;2022-08-25T18:56:16;24.50;;;16.25;;
25123;SDS011;13104;51.030;4.686;2022-08-25T18:58:43;29.55;;;17.55;;
25123;SDS011;13104;51.030;4.686;2022-08-25T19:01:11;20.13;;;14.10;;
25123;SDS011;13104;51.030;4.686;2022-08-25T19:03:38;26.90;;;16.05;;
25123;SDS011;13104;51.030;4.686;2022-08-25T19:06:04;30.63;;;17.73;;
25123;SDS011;13104;51.030;4.686;2022-08-25T19:08:30;29.52;;;18.23;;
25123;SDS011;13104;51.030;4.686;2022-08-25T19:10:56;27.70;;;18.92;;
25123;SDS011;13104;51.030;4.686;2022-08-25T19:13:22;27.15;;;17.83;;
25123;SDS011;13104;51.030;4.686;2022-08-25T19:15:49;27.33;;;19.60;;
25123;SDS011;13104;51.030;4.686;2022-08-25T19:18:16;30.55;;;18.48;;
25123;SDS011;13104;51.030;4.686;2022-08-25T19:20:43;31.95;;;18.27;;
25123;SDS011;13104;51.030;4.686;2022-08-25T19:23:09;36.33;;;17.20;;
25123;SDS011;13104;51.030;4.686;2022-08-25T19:25:37;27.02;;;15.07;;
25123;SDS011;13104;51.030;4.686;2022-08-25T19:28:04;30.70;;;14.43;;
25123;SDS011;13104;51.030;4.686;2022-08-25T19:30:31;28.30;;;12.43;;
25123;SDS011;13104;51.030;4.686;2022-08-25T19:32:58;22.63;;;12.25;;
25123;SDS011;13104;51.030;4.686;2022-08-25T19:35:28;21.40;;;10.57;;
25123;SDS011;13104;51.030;4.686;2022-08-25T19:37:56;24.02;;;10.43;;
25123;SDS011;13104;51.030;4.686;2022-08-25T19:40:22;22.67;;;10.07;;
25123;SDS011;13104;51.030;4.686;2022-08-25T19:42:49;24.02;;;10.00;;
25123;SDS011;13104;51.030;4.686;2022-08-25T19:45:17;25.10;;;10.00;;
25123;SDS011;13104;51.030;4.686;2022-08-25T19:47:43;27.00;;;10.52;;
25123;SDS011;13104;51.030;4.686;2022-08-25T19:50:10;26.52;;;11.38;;
25123;SDS011;13104;51.030;4.686;2022-08-25T19:52:36;23.30;;;11.00;;
25123;SDS011;13104;51.030;4.686;2022-08-25T19:55:04;30.92;;;12.30;;
25123;SDS011;13104;51.030;4.686;2022-08-25T19:57:30;29.25;;;13.05;;
25123;SDS011;13104;51.030;4.686;2022-08-25T19:59:57;24.85;;;12.68;;
25123;SDS011;13104;51.030;4.686;2022-08-25T20:02:24;26.08;;;13.13;;
25123;SDS011;13104;51.030;4.686;2022-08-25T20:04:51;25.10;;;13.18;;
25123;SDS011;13104;51.030;4.686;2022-08-25T20:07:18;26.20;;;13.48;;
25123;SDS011;13104;51.030;4.686;2022-08-25T20:09:46;22.98;;;11.15;;
25123;SDS011;13104;51.030;4.686;2022-08-25T20:12:13;21.17;;;11.60;;
25123;SDS011;13104;51.030;4.686;2022-08-25T20:14:44;29.90;;;11.02;;
25123;SDS011;13104;51.030;4.686;2022-08-25T20:17:11;24.75;;;9.98;;
25123;SDS011;13104;51.030;4.686;2022-08-25T20:19:37;21.58;;;10.30;;
25123;SDS011;13104;51.030;4.686;2022-08-25T20:22:04;24.95;;;9.23;;
25123;SDS011;13104;51.030;4.686;2022-08-25T20:24:30;20.67;;;9.02;;
25123;SDS011;13104;51.030;4.686;2022-08-25T20:27:18;16.63;;;6.90;;
25123;SDS011;13104;51.030;4.686;2022-08-25T20:29:44;18.45;;;7.07;;
25123;SDS011;13104;51.030;4.686;2022-08-25T20:32:11;12.30;;;5.30;;
25123;SDS011;13104;51.030;4.686;2022-08-25T20:34:37;14.20;;;5.22;;
25123;SDS011;13104;51.030;4.686;2022-08-25T20:37:03;19.58;;;5.00;;
25123;SDS011;13104;51.030;4.686;2022-08-25T20:39:29;17.45;;;5.15;;